Nearby METAR Reports

 

KHQM - Hoquiam,WA, USA
Updated: 10/22/2019 8:53pm
Clear
Clear
 Wind from NW
Wind: NW 3 mph , 6 km/h
Temperature: 50°F , 10°C
Dew Point: 48°F , 9°C
Humidity: 94%
Barometer: 30.43 inHg , 1030.5 hPa
Clouds: Clear
Visibility: 10 miles , 16 km
2019/10/23 03:53 KHQM 230353Z AUTO 31003KT 10SM CLR 10/09 A3043 RMK AO2 SLP306 T01000089